createdAt,value
2022-08-12T00:00:16.606Z,99431.44
2022-08-12T00:02:02.783Z,99430.66
2022-08-12T00:03:20.742Z,99423.66
2022-08-12T00:04:42.622Z,99434.19
2022-08-12T00:06:04.640Z,99433.84
2022-08-12T00:07:26.566Z,99429.97
2022-08-12T00:08:50.255Z,99432.63
2022-08-12T00:10:11.945Z,99426.59
2022-08-12T00:11:33.672Z,99428.75
2022-08-12T00:12:54.838Z,99430.44
2022-08-12T00:14:16.006Z,99421.72
2022-08-12T00:15:37.565Z,99432.13
2022-08-12T00:16:58.791Z,99432.72
2022-08-12T00:18:23.199Z,99449.69
2022-08-12T00:19:44.503Z,99438.25
2022-08-12T00:21:06.145Z,99448.69
2022-08-12T00:22:28.217Z,99445.06
2022-08-12T00:23:49.014Z,99450.50
2022-08-12T00:25:17.466Z,99449.44
2022-08-12T00:26:38.989Z,99451.00
2022-08-12T00:28:00.277Z,99444.81
2022-08-12T00:29:21.831Z,99434.91
2022-08-12T00:30:43.404Z,99445.78
2022-08-12T00:32:05.292Z,99437.13
2022-08-12T00:33:32.291Z,99440.41
2022-08-12T00:34:59.513Z,99438.72
2022-08-12T00:36:34.905Z,99446.72
2022-08-12T00:37:56.866Z,99446.81
2022-08-12T00:39:18.074Z,99454.16
2022-08-12T00:40:40.227Z,99449.81
2022-08-12T00:42:02.160Z,99442.03
2022-08-12T00:43:07.852Z,99455.00
2022-08-12T00:44:11.504Z,99449.81
2022-08-12T00:45:14.722Z,99445.75
2022-08-12T00:46:32.460Z,99437.38
2022-08-12T00:47:35.610Z,99462.53
2022-08-12T00:48:39.189Z,99447.66
2022-08-12T00:49:42.224Z,99444.16
2022-08-12T00:50:49.743Z,99446.53
2022-08-12T00:52:12.012Z,99460.44
2022-08-12T00:53:17.081Z,99454.25
2022-08-12T00:54:21.796Z,99454.72
2022-08-12T00:55:24.066Z,99455.69
2022-08-12T00:56:28.594Z,99458.34
2022-08-12T00:57:36.583Z,99451.56
2022-08-12T00:58:47.970Z,99457.59
2022-08-12T01:00:14.881Z,99451.41
2022-08-12T01:01:18.074Z,99449.09
2022-08-12T01:02:26.173Z,99459.00
2022-08-12T01:03:51.932Z,99458.47
2022-08-12T01:05:20.053Z,99455.81
2022-08-12T01:06:41.627Z,99451.88
2022-08-12T01:08:04.188Z,99452.09
2022-08-12T01:09:26.437Z,99443.50
2022-08-12T01:11:02.924Z,99453.16
2022-08-12T01:12:08.284Z,99454.44
2022-08-12T01:13:19.430Z,99450.88
2022-08-12T01:14:25.009Z,99457.66
2022-08-12T01:15:28.192Z,99452.91
2022-08-12T01:16:31.071Z,99462.97
2022-08-12T01:17:34.044Z,99461.81
2022-08-12T01:18:39.686Z,99456.28
2022-08-12T01:19:42.199Z,99463.50
2022-08-12T01:20:53.251Z,99455.97
2022-08-12T01:22:26.234Z,99459.78
2022-08-12T01:23:35.173Z,99457.56
2022-08-12T01:24:58.494Z,99454.06
2022-08-12T01:26:04.409Z,99460.00
2022-08-12T01:27:09.693Z,99457.75
2022-08-12T01:28:14.400Z,99452.31
2022-08-12T01:29:23.221Z,99451.19
2022-08-12T01:30:26.807Z,99460.31
2022-08-12T01:31:30.391Z,99459.28
2022-08-12T01:32:37.718Z,99454.06
2022-08-12T01:33:46.174Z,99451.50
2022-08-12T01:35:13.233Z,99448.53
2022-08-12T01:36:19.086Z,99433.97
2022-08-12T01:37:25.259Z,99453.13
2022-08-12T01:38:33.003Z,99459.56
2022-08-12T01:40:33.564Z,99460.88
2022-08-12T01:41:23.740Z,99448.09
2022-08-12T01:42:28.290Z,99448.41
2022-08-12T01:43:31.347Z,99452.03
2022-08-12T01:44:34.903Z,99450.97
2022-08-12T01:45:46.279Z,99444.91
2022-08-12T01:47:19.087Z,99447.78
2022-08-12T01:48:24.365Z,99448.00
2022-08-12T01:49:29.534Z,99451.38
2022-08-12T01:51:00.379Z,99449.91
2022-08-12T01:52:21.657Z,99442.16
2022-08-12T01:53:32.559Z,99445.84
2022-08-12T01:54:53.675Z,99437.00
2022-08-12T01:55:56.556Z,99442.84
2022-08-12T01:57:58.636Z,99442.97
2022-08-12T01:59:04.723Z,99435.84
2022-08-12T02:00:13.504Z,99442.38
2022-08-12T02:01:16.638Z,99430.28
2022-08-12T02:02:22.204Z,99441.84
2022-08-12T02:04:20.072Z,99443.13
2022-08-12T02:05:53.088Z,99431.81
2022-08-12T02:07:19.992Z,99432.84
2022-08-12T02:09:05.607Z,99436.38
2022-08-12T02:11:07.745Z,99429.09
2022-08-12T02:12:37.530Z,99442.16
2022-08-12T02:13:55.335Z,99429.03
2022-08-12T02:15:12.884Z,99434.03
2022-08-12T02:16:32.988Z,99429.13
2022-08-12T02:18:12.884Z,99443.50
2022-08-12T02:19:42.671Z,99440.94
2022-08-12T02:21:19.381Z,99442.84
2022-08-12T02:22:31.516Z,99438.69
2022-08-12T02:23:36.726Z,99436.13
2022-08-12T02:24:42.326Z,99432.72
2022-08-12T02:25:46.139Z,99431.97
2022-08-12T02:26:50.210Z,99433.75
2022-08-12T02:27:55.140Z,99433.09
2022-08-12T02:28:57.776Z,99432.06
2022-08-12T02:30:00.371Z,99433.97
2022-08-12T02:31:05.789Z,99426.28
2022-08-12T02:32:09.469Z,99426.09
2022-08-12T02:33:12.032Z,99425.06
2022-08-12T02:34:17.558Z,99418.72
2022-08-12T02:35:25.548Z,99429.47
2022-08-12T02:36:28.129Z,99425.88
2022-08-12T02:37:38.933Z,99427.59
2022-08-12T02:38:44.791Z,99430.16
2022-08-12T02:39:49.704Z,99428.53
2022-08-12T02:40:54.762Z,99433.81
2022-08-12T02:42:00.375Z,99435.81
2022-08-12T02:43:17.363Z,99429.88
2022-08-12T02:44:22.837Z,99431.38
2022-08-12T02:45:36.187Z,99415.38
2022-08-12T02:46:41.675Z,99425.09
2022-08-12T02:47:59.291Z,99427.59
2022-08-12T02:49:15.858Z,99427.09
2022-08-12T02:50:20.634Z,99428.06
2022-08-12T02:51:25.815Z,99431.91
2022-08-12T02:52:29.470Z,99429.09
2022-08-12T02:53:34.289Z,99425.94
2022-08-12T02:54:38.413Z,99431.88
2022-08-12T02:55:41.245Z,99420.03
2022-08-12T02:56:50.992Z,99422.84
2022-08-12T02:57:54.627Z,99417.94
2022-08-12T02:58:58.196Z,99422.47
2022-08-12T03:00:03.964Z,99416.50
2022-08-12T03:01:10.514Z,99424.72
2022-08-12T03:02:16.495Z,99428.69
2022-08-12T03:03:19.291Z,99429.91
2022-08-12T03:04:32.740Z,99429.34
2022-08-12T03:05:44.090Z,99427.97
2022-08-12T03:06:53.943Z,99418.69
2022-08-12T03:08:00.384Z,99420.56
2022-08-12T03:09:03.749Z,99430.00
2022-08-12T03:10:16.150Z,99427.75
2022-08-12T03:11:26.063Z,99424.63
2022-08-12T03:12:33.807Z,99426.56
2022-08-12T03:13:41.169Z,99432.03
2022-08-12T03:14:44.506Z,99433.81
2022-08-12T03:15:47.059Z,99418.59
2022-08-12T03:16:54.950Z,99429.91
2022-08-12T03:18:23.703Z,99431.09
2022-08-12T03:19:31.220Z,99430.66
2022-08-12T03:20:40.891Z,99431.44
2022-08-12T03:21:57.958Z,99442.38
2022-08-12T03:23:19.438Z,99434.00
2022-08-12T03:24:33.566Z,99430.84
2022-08-12T03:25:40.201Z,99434.50
2022-08-12T03:26:45.349Z,99432.72
2022-08-12T03:27:55.621Z,99432.97
2022-08-12T03:28:58.153Z,99426.06
2022-08-12T03:30:00.563Z,99434.78
2022-08-12T03:31:05.623Z,99437.00
2022-08-12T03:32:09.087Z,99435.13
2022-08-12T03:33:35.664Z,99437.75
2022-08-12T03:34:38.240Z,99442.44
2022-08-12T03:35:42.640Z,99441.94
2022-08-12T03:36:48.156Z,99444.28
2022-08-12T03:37:51.507Z,99435.13
2022-08-12T03:39:16.691Z,99432.88
2022-08-12T03:40:37.562Z,99426.16
2022-08-12T03:42:04.201Z,99423.28
2022-08-12T03:43:26.455Z,99437.72
2022-08-12T03:44:58.675Z,99431.72
2022-08-12T03:46:27.996Z,99435.75
2022-08-12T03:47:58.742Z,99439.66
2022-08-12T03:49:19.893Z,99439.81
2022-08-12T03:50:40.884Z,99441.72
2022-08-12T03:52:01.892Z,99439.00
2022-08-12T03:53:26.447Z,99437.16
2022-08-12T03:54:47.029Z,99435.69
2022-08-12T03:56:08.185Z,99437.16
2022-08-12T03:57:29.403Z,99438.06
2022-08-12T03:58:50.304Z,99431.81
2022-08-12T04:00:11.002Z,99443.09
2022-08-12T04:01:26.745Z,99444.41
2022-08-12T04:02:30.787Z,99444.88
2022-08-12T04:03:52.314Z,99440.63
2022-08-12T04:04:56.144Z,99438.66
2022-08-12T04:05:58.647Z,99433.44
2022-08-12T04:07:10.325Z,99443.97
2022-08-12T04:08:14.422Z,99436.88
2022-08-12T04:09:20.244Z,99439.66
2022-08-12T04:10:22.771Z,99438.28
2022-08-12T04:11:45.698Z,99440.66
2022-08-12T04:13:19.804Z,99436.75
2022-08-12T04:14:22.106Z,99439.66
2022-08-12T04:15:27.781Z,99439.53
2022-08-12T04:16:30.478Z,99434.41
2022-08-12T04:17:33.763Z,99435.16
2022-08-12T04:18:38.671Z,99446.53
2022-08-12T04:19:42.123Z,99444.31
2022-08-12T04:20:47.610Z,99439.19
2022-08-12T04:22:02.115Z,99443.53
2022-08-12T04:23:08.346Z,99445.72
2022-08-12T04:24:11.566Z,99444.31
2022-08-12T04:25:14.812Z,99435.72
2022-08-12T04:26:17.144Z,99436.28
2022-08-12T04:27:19.695Z,99442.16
2022-08-12T04:28:27.835Z,99441.63
2022-08-12T04:30:29.822Z,99435.94
2022-08-12T04:30:52.817Z,99438.00
2022-08-12T04:31:55.981Z,99437.09
2022-08-12T04:32:58.828Z,99431.84
2022-08-12T04:34:02.975Z,99428.75
2022-08-12T04:35:06.038Z,99424.56
2022-08-12T04:36:09.165Z,99421.53
2022-08-12T04:37:12.801Z,99422.81
2022-08-12T04:38:16.842Z,99407.75
2022-08-12T04:39:22.061Z,99421.03
2022-08-12T04:40:28.413Z,99413.94
2022-08-12T04:41:31.759Z,99411.84
2022-08-12T04:42:34.229Z,99416.81
2022-08-12T04:43:59.570Z,99419.19
2022-08-12T04:44:59.439Z,99424.69
2022-08-12T04:46:02.762Z,99428.91
2022-08-12T04:47:05.459Z,99410.78
2022-08-12T04:48:08.878Z,99412.56
2022-08-12T04:49:12.535Z,99419.75
2022-08-12T04:50:34.061Z,99410.84
2022-08-12T04:51:38.008Z,99407.34
2022-08-12T04:52:41.292Z,99408.84
2022-08-12T04:53:43.902Z,99408.25
2022-08-12T04:54:47.856Z,99405.56
2022-08-12T04:55:52.232Z,99410.91
2022-08-12T04:57:03.688Z,99409.06
2022-08-12T04:58:08.301Z,99408.06
2022-08-12T04:59:11.576Z,99412.19
2022-08-12T05:00:14.509Z,99412.34
2022-08-12T05:01:18.362Z,99407.19
2022-08-12T05:02:22.685Z,99405.94
2022-08-12T05:03:26.660Z,99412.25
2022-08-12T05:04:29.808Z,99413.78
2022-08-12T05:05:36.314Z,99404.75
2022-08-12T05:06:38.894Z,99399.84
2022-08-12T05:07:53.082Z,99412.88
2022-08-12T05:08:59.782Z,99410.22
2022-08-12T05:10:03.152Z,99408.28
2022-08-12T05:11:06.755Z,99408.38
2022-08-12T05:12:09.197Z,99403.25
2022-08-12T05:13:15.506Z,99405.00
2022-08-12T05:14:18.060Z,99408.41
2022-08-12T05:15:29.241Z,99410.56
2022-08-12T05:16:33.070Z,99417.97
2022-08-12T05:17:40.881Z,99412.97
2022-08-12T05:18:45.841Z,99415.97
2022-08-12T05:19:50.163Z,99421.78
2022-08-12T05:20:52.476Z,99417.97
2022-08-12T05:21:54.785Z,99416.34
2022-08-12T05:23:17.515Z,99428.31
2022-08-12T05:24:19.839Z,99432.31
2022-08-12T05:25:22.350Z,99433.22
2022-08-12T05:26:25.110Z,99424.81
2022-08-12T05:27:28.052Z,99428.41
2022-08-12T05:28:30.600Z,99429.84
2022-08-12T05:30:06.953Z,99426.94
2022-08-12T05:30:56.737Z,99434.38
2022-08-12T05:31:59.723Z,99440.28
2022-08-12T05:33:05.294Z,99439.41
2022-08-12T05:34:07.594Z,99439.66
2022-08-12T05:35:10.466Z,99450.69
2022-08-12T05:36:15.652Z,99446.66
2022-08-12T05:37:17.984Z,99443.78
2022-08-12T05:38:39.049Z,99443.06
2022-08-12T05:39:42.180Z,99443.59
2022-08-12T05:40:44.563Z,99434.03
2022-08-12T05:41:46.854Z,99441.47
2022-08-12T05:42:49.236Z,99442.28
2022-08-12T05:44:00.918Z,99441.94
2022-08-12T05:45:03.709Z,99443.91
2022-08-12T05:46:07.207Z,99444.34
2022-08-12T05:47:14.618Z,99445.72
2022-08-12T05:48:17.748Z,99442.59
2022-08-12T05:49:20.036Z,99452.59
2022-08-12T05:50:22.354Z,99447.75
2022-08-12T05:51:39.561Z,99449.06
2022-08-12T05:52:43.990Z,99458.31
2022-08-12T05:53:46.528Z,99448.28
2022-08-12T05:54:57.668Z,99460.56
2022-08-12T05:56:00.331Z,99457.97
2022-08-12T05:57:03.277Z,99453.09
2022-08-12T05:58:06.797Z,99453.97
2022-08-12T05:59:11.162Z,99465.81
2022-08-12T06:00:16.468Z,99453.66
2022-08-12T06:02:11.684Z,99482.13
2022-08-12T06:02:42.513Z,99472.97
2022-08-12T06:03:44.957Z,99468.56
2022-08-12T06:04:47.204Z,99465.22
2022-08-12T06:05:55.048Z,99478.97
2022-08-12T06:06:58.496Z,99468.09
2022-08-12T06:08:05.916Z,99469.66
2022-08-12T06:09:10.885Z,99465.41
2022-08-12T06:10:13.643Z,99465.44
2022-08-12T06:11:16.169Z,99464.78
2022-08-12T06:12:21.357Z,99460.41
2022-08-12T06:13:28.425Z,99470.44
2022-08-12T06:14:48.183Z,99477.38
2022-08-12T06:15:50.426Z,99457.56
2022-08-12T06:16:52.991Z,99460.28
2022-08-12T06:18:05.352Z,99467.59
2022-08-12T06:19:16.517Z,99465.78
2022-08-12T06:20:22.849Z,99470.94
2022-08-12T06:21:32.299Z,99466.53
2022-08-12T06:22:35.070Z,99455.97
2022-08-12T06:23:42.320Z,99469.06
2022-08-12T06:24:45.045Z,99464.53
2022-08-12T06:25:47.365Z,99468.94
2022-08-12T06:26:51.088Z,99476.06
2022-08-12T06:28:06.569Z,99467.34
2022-08-12T06:29:10.543Z,99470.66
2022-08-12T06:30:27.709Z,99456.84
2022-08-12T06:31:34.833Z,99460.56
2022-08-12T06:32:42.781Z,99466.59
2022-08-12T06:35:22.706Z,99474.28
2022-08-12T06:35:25.359Z,99477.88
2022-08-12T06:36:40.977Z,99469.28
2022-08-12T06:37:57.781Z,99464.56
2022-08-12T06:39:00.909Z,99471.19
2022-08-12T06:40:04.246Z,99475.56
2022-08-12T06:41:25.569Z,99475.06
2022-08-12T06:42:47.320Z,99477.53
2022-08-12T06:44:06.198Z,99468.50
2022-08-12T06:45:12.304Z,99464.25
2022-08-12T06:46:14.942Z,99467.31
2022-08-12T06:47:19.398Z,99467.44
2022-08-12T06:48:21.850Z,99456.97
2022-08-12T06:49:24.234Z,99472.75
2022-08-12T06:50:27.475Z,99468.69
2022-08-12T06:51:33.246Z,99467.81
2022-08-12T06:52:35.517Z,99471.72
2022-08-12T06:53:37.873Z,99471.66
2022-08-12T06:54:44.249Z,99474.09
2022-08-12T06:55:58.236Z,99469.78
2022-08-12T06:58:05.824Z,99465.03
2022-08-12T06:58:25.040Z,99472.13
2022-08-12T06:59:27.473Z,99464.09
2022-08-12T07:00:35.298Z,99462.03
2022-08-12T07:01:38.532Z,99462.25
2022-08-12T07:02:41.378Z,99466.53
2022-08-12T07:03:44.264Z,99462.00
2022-08-12T07:04:48.089Z,99470.69
2022-08-12T07:05:51.054Z,99465.59
2022-08-12T07:06:55.787Z,99464.56
2022-08-12T07:08:01.445Z,99470.69
2022-08-12T07:09:15.846Z,99472.56
2022-08-12T07:10:33.759Z,99472.69
2022-08-12T07:11:36.213Z,99468.19
2022-08-12T07:12:38.659Z,99474.56
2022-08-12T07:14:11.242Z,99473.00
2022-08-12T07:15:07.977Z,99476.84
2022-08-12T07:16:21.536Z,99467.56
2022-08-12T07:17:23.962Z,99473.44
2022-08-12T07:18:32.750Z,99468.31
2022-08-12T07:19:44.948Z,99463.25
2022-08-12T07:20:53.288Z,99469.78
2022-08-12T07:22:02.073Z,99475.44
2022-08-12T07:23:06.319Z,99471.72
2022-08-12T07:24:08.588Z,99471.34
2022-08-12T07:25:29.750Z,99473.69
2022-08-12T07:26:43.722Z,99467.50
2022-08-12T07:27:46.841Z,99470.88
2022-08-12T07:28:50.349Z,99466.81
2022-08-12T07:29:58.387Z,99466.88
2022-08-12T07:31:12.329Z,99464.75
2022-08-12T07:32:23.649Z,99463.31
2022-08-12T07:33:28.267Z,99464.59
2022-08-12T07:34:30.563Z,99472.13
2022-08-12T07:35:34.427Z,99463.59
2022-08-12T07:36:37.004Z,99464.03
2022-08-12T07:37:41.596Z,99467.16
2022-08-12T07:38:51.664Z,99459.19
2022-08-12T07:40:00.439Z,99460.22
2022-08-12T07:41:15.599Z,99468.13
2022-08-12T07:42:19.099Z,99474.06
2022-08-12T07:43:22.556Z,99460.50
2022-08-12T07:44:25.638Z,99456.00
2022-08-12T07:45:28.203Z,99464.19
2022-08-12T07:46:36.824Z,99466.94
2022-08-12T07:47:43.417Z,99465.69
2022-08-12T07:48:49.775Z,99464.59
2022-08-12T07:50:05.015Z,99458.25
2022-08-12T07:51:09.640Z,99453.38
2022-08-12T07:52:11.935Z,99450.53
2022-08-12T07:53:14.406Z,99451.06
2022-08-12T07:54:16.808Z,99447.34
2022-08-12T07:55:19.238Z,99460.75
2022-08-12T07:56:21.823Z,99453.16
2022-08-12T07:57:24.075Z,99451.38
2022-08-12T07:58:26.492Z,99464.41
2022-08-12T07:59:29.236Z,99453.47
2022-08-12T08:00:36.485Z,99459.88
2022-08-12T08:01:40.005Z,99455.50
2022-08-12T08:02:42.362Z,99450.41
2022-08-12T08:04:04.975Z,99455.13
2022-08-12T08:05:07.737Z,99461.72
2022-08-12T08:06:18.667Z,99460.59
2022-08-12T08:07:23.090Z,99456.06
2022-08-12T08:08:27.919Z,99453.63
2022-08-12T08:09:30.179Z,99450.78
2022-08-12T08:10:33.364Z,99446.13
2022-08-12T08:11:53.918Z,99446.69
2022-08-12T08:12:58.669Z,99456.06
2022-08-12T08:14:04.242Z,99442.09
2022-08-12T08:15:06.701Z,99445.41
2022-08-12T08:16:08.996Z,99449.38
2022-08-12T08:17:11.443Z,99452.59
2022-08-12T08:18:25.748Z,99454.34
2022-08-12T08:19:31.085Z,99453.34
2022-08-12T08:20:42.405Z,99454.66
2022-08-12T08:21:46.359Z,99460.81
2022-08-12T08:22:48.624Z,99472.44
2022-08-12T08:24:10.880Z,99466.00
2022-08-12T08:25:36.669Z,99457.63
2022-08-12T08:26:36.268Z,99460.31
2022-08-12T08:27:45.552Z,99464.31
2022-08-12T08:28:48.171Z,99459.34
2022-08-12T08:29:51.258Z,99456.84
2022-08-12T08:30:53.637Z,99450.50
2022-08-12T08:32:00.001Z,99451.44
2022-08-12T08:33:02.297Z,99453.88
2022-08-12T08:34:47.197Z,99460.72
2022-08-12T08:35:46.270Z,99464.09
2022-08-12T08:36:48.947Z,99449.91
2022-08-12T08:37:52.341Z,99452.28
2022-08-12T08:38:58.069Z,99456.47
2022-08-12T08:40:20.964Z,99454.53
2022-08-12T08:42:13.894Z,99447.53
2022-08-12T08:43:04.761Z,99451.47
2022-08-12T08:44:10.753Z,99463.41
2022-08-12T08:45:14.006Z,99454.81
2022-08-12T08:46:16.276Z,99449.97
2022-08-12T08:47:18.502Z,99450.91
2022-08-12T08:48:22.168Z,99444.44
2022-08-12T08:49:25.083Z,99447.28
2022-08-12T08:50:27.579Z,99451.59
2022-08-12T08:51:30.771Z,99451.34
2022-08-12T08:52:40.190Z,99445.84
2022-08-12T08:53:44.567Z,99444.03
2022-08-12T08:54:54.462Z,99454.09
2022-08-12T08:56:05.565Z,99448.31
2022-08-12T08:57:08.621Z,99446.09
2022-08-12T08:58:12.364Z,99446.28
2022-08-12T08:59:15.878Z,99439.44
2022-08-12T09:00:24.366Z,99450.56
2022-08-12T09:01:37.595Z,99442.22
2022-08-12T09:02:41.643Z,99453.25
2022-08-12T09:05:07.153Z,99442.78
2022-08-12T09:05:17.851Z,99444.44
2022-08-12T09:09:14.678Z,99439.34
2022-08-12T09:12:11.842Z,99430.69
2022-08-12T09:14:11.388Z,99439.97
2022-08-12T09:15:00.157Z,99421.56
2022-08-12T09:16:02.528Z,99429.16
2022-08-12T09:17:05.762Z,99425.94
2022-08-12T09:18:09.478Z,99427.03
2022-08-12T09:19:27.431Z,99430.06
2022-08-12T09:20:33.657Z,99439.56
2022-08-12T09:23:01.146Z,99424.69
2022-08-12T09:24:10.578Z,99434.44
2022-08-12T09:25:25.470Z,99431.09
2022-08-12T09:26:29.759Z,99420.63
2022-08-12T09:28:03.985Z,99431.03
2022-08-12T09:29:00.594Z,99430.19
2022-08-12T09:30:13.873Z,99420.75
2022-08-12T09:32:04.044Z,99414.81
2022-08-12T09:33:04.520Z,99435.16
2022-08-12T09:34:25.522Z,99424.00
2022-08-12T09:35:42.720Z,99417.41
2022-08-12T09:37:00.184Z,99424.03
2022-08-12T09:38:03.639Z,99428.97
2022-08-12T09:40:04.342Z,99420.91
2022-08-12T09:40:57.988Z,99412.38
2022-08-12T09:42:34.311Z,99419.44
2022-08-12T09:44:01.141Z,99410.34
2022-08-12T09:45:24.660Z,99415.50
2022-08-12T09:46:45.538Z,99399.38
2022-08-12T09:47:59.697Z,99404.81
2022-08-12T09:49:04.062Z,99402.13
2022-08-12T09:50:20.089Z,99402.13
2022-08-12T09:51:23.619Z,99400.34
2022-08-12T09:52:31.943Z,99398.91
2022-08-12T09:53:38.473Z,99392.91
2022-08-12T09:54:43.283Z,99390.38
2022-08-12T09:56:07.334Z,99386.66
2022-08-12T09:58:07.634Z,99393.69
2022-08-12T09:58:57.791Z,99392.53
2022-08-12T10:00:16.084Z,99383.47
2022-08-12T10:01:25.561Z,99390.72
2022-08-12T10:03:02.249Z,99384.25
2022-08-12T10:04:12.076Z,99380.72
2022-08-12T10:05:17.943Z,99369.28
2022-08-12T10:06:36.392Z,99381.25
2022-08-12T10:07:40.336Z,99368.44
2022-08-12T10:08:44.724Z,99378.50
2022-08-12T10:09:57.893Z,99375.50
2022-08-12T10:11:22.724Z,99358.66
2022-08-12T10:13:06.973Z,99366.47
2022-08-12T10:14:06.843Z,99352.63
2022-08-12T10:16:02.896Z,99358.56
2022-08-12T10:16:43.697Z,99374.84
2022-08-12T10:17:56.789Z,99372.31
2022-08-12T10:19:17.729Z,99361.34
2022-08-12T10:20:20.274Z,99366.91
2022-08-12T10:21:37.831Z,99350.34
2022-08-12T10:22:41.599Z,99353.31
2022-08-12T10:23:48.364Z,99356.75
2022-08-12T10:25:17.150Z,99355.00
2022-08-12T10:26:40.080Z,99364.53
2022-08-12T10:28:04.513Z,99351.78
2022-08-12T10:30:37.715Z,99350.47
2022-08-12T10:30:59.184Z,99349.41
2022-08-12T10:32:20.633Z,99351.19
2022-08-12T10:33:30.696Z,99338.19
2022-08-12T10:34:34.405Z,99346.50
2022-08-12T10:35:38.568Z,99342.16
2022-08-12T10:36:44.354Z,99345.16
2022-08-12T10:38:34.556Z,99345.47
2022-08-12T10:40:01.310Z,99341.38
2022-08-12T10:40:55.369Z,99341.38
2022-08-12T10:42:16.058Z,99340.53
2022-08-12T10:43:54.305Z,99332.81
2022-08-12T10:45:03.751Z,99326.63
2022-08-12T10:46:13.198Z,99334.50
2022-08-12T10:47:26.278Z,99333.84
2022-08-12T10:48:58.027Z,99328.94
2022-08-12T10:50:28.390Z,99335.16
2022-08-12T10:52:04.486Z,99335.00
2022-08-12T10:52:48.885Z,99341.06
2022-08-12T10:54:00.537Z,99358.50
2022-08-12T10:55:06.934Z,99329.94
2022-08-12T10:56:17.296Z,99336.66
2022-08-12T10:58:12.535Z,99342.91
2022-08-12T10:58:46.039Z,99335.44
2022-08-12T11:00:34.377Z,99327.09
2022-08-12T11:01:49.458Z,99344.91
2022-08-12T11:04:28.129Z,99332.94
2022-08-12T11:04:35.340Z,99333.09
2022-08-12T11:07:03.292Z,99333.38
2022-08-12T11:08:33.731Z,99338.16
2022-08-12T11:08:37.230Z,99337.84
2022-08-12T11:09:59.683Z,99336.50
2022-08-12T11:11:13.617Z,99328.06
2022-08-12T11:12:55.450Z,99341.56
2022-08-12T11:13:46.066Z,99339.97
2022-08-12T11:14:52.106Z,99333.44
2022-08-12T11:16:19.335Z,99322.09
2022-08-12T11:17:43.653Z,99331.91
2022-08-12T11:18:40.624Z,99334.72
2022-08-12T11:19:43.757Z,99319.38
2022-08-12T11:20:48.370Z,99324.66
2022-08-12T11:21:57.581Z,99307.91
2022-08-12T11:23:25.070Z,99317.25
2022-08-12T11:24:32.109Z,99310.47
2022-08-12T11:25:56.184Z,99313.25
2022-08-12T11:27:01.071Z,99309.47
2022-08-12T11:28:03.609Z,99298.63
2022-08-12T11:29:22.431Z,99305.47
2022-08-12T11:30:30.502Z,99312.66
2022-08-12T11:31:56.090Z,99304.84
2022-08-12T11:32:57.622Z,99309.25
2022-08-12T11:34:06.322Z,99302.19
2022-08-12T11:35:22.477Z,99300.22
2022-08-12T11:36:26.108Z,99317.25
2022-08-12T11:37:28.695Z,99303.09
2022-08-12T11:38:31.281Z,99309.75
2022-08-12T11:40:03.541Z,99300.88
2022-08-12T11:40:56.544Z,99303.69
2022-08-12T11:42:01.417Z,99299.09
2022-08-12T11:43:18.821Z,99296.44
2022-08-12T11:44:35.242Z,99302.50
2022-08-12T11:45:39.754Z,99304.38
2022-08-12T11:46:52.657Z,99291.72
2022-08-12T11:47:57.020Z,99285.00
2022-08-12T11:48:59.289Z,99291.59
2022-08-12T11:50:01.739Z,99296.50
2022-08-12T11:51:04.346Z,99303.22
2022-08-12T11:52:26.524Z,99295.47
2022-08-12T11:53:58.341Z,99290.41
2022-08-12T11:54:54.311Z,99280.94
2022-08-12T11:55:56.978Z,99280.66
2022-08-12T11:57:02.383Z,99284.41
2022-08-12T11:58:33.860Z,99283.56
2022-08-12T12:02:17.599Z,99294.34
2022-08-12T12:03:23.157Z,99269.75
2022-08-12T12:04:29.032Z,99291.72
2022-08-12T12:05:39.483Z,99281.59
2022-08-12T12:06:52.921Z,99287.34
2022-08-12T12:08:37.669Z,99290.22
2022-08-12T12:09:17.887Z,99283.34
2022-08-12T12:10:20.962Z,99293.91
2022-08-12T12:11:23.501Z,99289.28
2022-08-12T12:12:25.828Z,99284.84
2022-08-12T12:14:07.333Z,99276.78
2022-08-12T12:14:54.715Z,99279.63
2022-08-12T12:15:58.284Z,99274.09
2022-08-12T12:17:02.567Z,99272.41
2022-08-12T12:18:05.056Z,99266.03
2022-08-12T12:19:08.793Z,99269.09
2022-08-12T12:20:12.987Z,99263.69
2022-08-12T12:21:16.749Z,99271.25
2022-08-12T12:22:23.612Z,99266.50
2022-08-12T12:23:36.169Z,99260.59
2022-08-12T12:24:39.024Z,99268.03
2022-08-12T12:26:06.679Z,99261.34
2022-08-12T12:27:04.298Z,99279.66
2022-08-12T12:28:06.778Z,99269.84
2022-08-12T12:30:19.682Z,99271.38
2022-08-12T12:30:31.997Z,99268.22
2022-08-12T12:32:10.077Z,99270.34
2022-08-12T12:32:57.760Z,99256.75
2022-08-12T12:33:59.905Z,99264.66
2022-08-12T12:35:14.418Z,99259.59
2022-08-12T12:36:30.163Z,99256.72
2022-08-12T12:38:04.003Z,99259.84
2022-08-12T12:38:55.732Z,99259.75
2022-08-12T12:39:58.736Z,99254.66
2022-08-12T12:41:16.378Z,99253.94
2022-08-12T12:42:43.137Z,99247.56
2022-08-12T12:43:43.585Z,99250.78
2022-08-12T12:44:59.001Z,99257.03
2022-08-12T12:46:01.359Z,99237.63
2022-08-12T12:47:03.753Z,99245.47
2022-08-12T12:48:26.366Z,99236.88
2022-08-12T12:49:28.688Z,99240.53
2022-08-12T12:50:45.249Z,99251.75
2022-08-12T12:52:19.672Z,99240.56
2022-08-12T12:54:05.213Z,99248.16
2022-08-12T12:54:52.598Z,99237.75
2022-08-12T12:55:55.334Z,99254.84
2022-08-12T12:56:58.245Z,99242.19
2022-08-12T12:58:04.484Z,99240.53
2022-08-12T12:59:07.549Z,99246.94
2022-08-12T13:00:31.352Z,99238.41
2022-08-12T13:01:42.028Z,99234.81
2022-08-12T13:02:58.229Z,99239.41
2022-08-12T13:04:03.474Z,99230.25
2022-08-12T13:05:13.920Z,99231.19
2022-08-12T13:06:18.992Z,99230.69
2022-08-12T13:07:22.064Z,99228.25
2022-08-12T13:08:44.887Z,99230.03
2022-08-12T13:09:49.238Z,99230.72
2022-08-12T13:10:53.300Z,99228.94
2022-08-12T13:11:56.676Z,99239.66
2022-08-12T13:14:06.516Z,99223.22
2022-08-12T13:14:28.953Z,99222.84
2022-08-12T13:15:43.242Z,99239.09
2022-08-12T13:16:54.578Z,99229.78
2022-08-12T13:18:05.816Z,99235.94
2022-08-12T13:19:10.032Z,99244.63
2022-08-12T13:20:13.957Z,99248.56
2022-08-12T13:21:56.535Z,99237.41
2022-08-12T13:22:59.725Z,99225.00
2022-08-12T13:24:09.968Z,99234.66
2022-08-12T13:25:19.859Z,99236.44
2022-08-12T13:26:28.571Z,99230.38
2022-08-12T13:27:41.678Z,99227.50
2022-08-12T13:28:56.076Z,99228.06
2022-08-12T13:30:03.675Z,99209.59
2022-08-12T13:31:08.219Z,99220.03
2022-08-12T13:32:30.674Z,99218.84
2022-08-12T13:34:28.217Z,99225.09
2022-08-12T13:35:03.923Z,99217.06
2022-08-12T13:36:10.269Z,99222.56
2022-08-12T13:37:15.253Z,99215.34
2022-08-12T13:38:34.137Z,99224.16
2022-08-12T13:39:39.402Z,99217.25
2022-08-12T13:40:42.209Z,99205.34
2022-08-12T13:41:50.273Z,99206.84
2022-08-12T13:42:57.527Z,99205.88
2022-08-12T13:44:02.486Z,99203.41
2022-08-12T13:45:07.907Z,99215.50
2022-08-12T13:46:14.284Z,99223.56
2022-08-12T13:47:19.924Z,99215.47
2022-08-12T13:48:23.867Z,99224.63
2022-08-12T13:49:54.557Z,99221.56
2022-08-12T13:50:57.535Z,99215.16
2022-08-12T13:52:00.704Z,99221.53
2022-08-12T13:53:24.239Z,99214.72
2022-08-12T13:54:32.875Z,99214.53
2022-08-12T13:55:42.404Z,99210.06
2022-08-12T13:56:49.934Z,99201.50
2022-08-12T13:57:54.973Z,99207.47
2022-08-12T13:59:07.928Z,99209.16
2022-08-12T14:00:13.018Z,99210.56
2022-08-12T14:01:18.189Z,99197.84
2022-08-12T14:02:22.636Z,99204.75